createdAt,value
2019-04-21T00:03:50.184Z,13.80
2019-04-21T00:08:22.885Z,13.70
2019-04-21T00:12:18.057Z,13.80
2019-04-21T00:16:10.679Z,13.70
2019-04-21T00:20:23.798Z,13.70
2019-04-21T00:24:35.021Z,13.70
2019-04-21T00:28:58.115Z,13.60
2019-04-21T00:32:46.548Z,13.50
2019-04-21T00:36:53.672Z,13.20
2019-04-21T00:41:07.298Z,13.10
2019-04-21T00:45:09.805Z,12.90
2019-04-21T00:49:16.940Z,12.90
2019-04-21T00:53:43.871Z,12.90
2019-04-21T01:01:49.391Z,12.60
2019-04-21T01:05:57.323Z,12.60
2019-04-21T01:09:59.007Z,12.60
2019-04-21T01:14:13.194Z,12.40
2019-04-21T01:18:16.511Z,12.30
2019-04-21T01:22:02.833Z,12.20
2019-04-21T01:26:25.286Z,12.10
2019-04-21T01:30:34.654Z,12.20
2019-04-21T01:34:40.837Z,12.20
2019-04-21T01:39:08.050Z,12.20
2019-04-21T01:42:55.643Z,12.20
2019-04-21T01:46:58.664Z,12.20
2019-04-21T01:51:05.394Z,12.10
2019-04-21T01:55:25.225Z,12.00
2019-04-21T01:59:18.855Z,12.00
2019-04-21T02:07:47.490Z,12.00
2019-04-21T02:11:56.478Z,11.80
2019-04-21T02:16:02.076Z,11.70
2019-04-21T02:19:56.459Z,11.60
2019-04-21T02:24:35.201Z,11.50
2019-04-21T02:28:29.861Z,11.50
2019-04-21T02:32:44.303Z,11.50
2019-04-21T02:40:52.871Z,11.40
2019-04-21T02:49:11.194Z,11.30
2019-04-21T02:53:09.550Z,11.20
2019-04-21T02:57:18.565Z,11.20
2019-04-21T03:02:00.875Z,11.10
2019-04-21T03:10:20.698Z,10.90
2019-04-21T03:14:35.872Z,10.80
2019-04-21T03:18:32.746Z,10.60
2019-04-21T03:22:31.608Z,10.60
2019-04-21T03:26:55.857Z,10.60
2019-04-21T03:39:01.745Z,10.50
2019-04-21T03:47:22.932Z,10.40
2019-04-21T03:51:26.004Z,10.40
2019-04-21T03:59:40.842Z,10.50
2019-04-21T04:04:28.613Z,10.40
2019-04-21T04:08:44.479Z,10.40
2019-04-21T04:12:34.505Z,10.40
2019-04-21T04:16:47.730Z,10.30
2019-04-21T04:25:15.478Z,10.10
2019-04-21T04:33:10.301Z,10.20
2019-04-21T04:41:33.612Z,10.10
2019-04-21T04:45:52.842Z,10.20
2019-04-21T04:49:48.160Z,10.10
2019-04-21T04:53:47.252Z,10.10
2019-04-21T05:10:47.732Z,10.00
2019-04-21T05:19:54.001Z,10.00
2019-04-21T05:26:49.354Z,10.20
2019-04-21T05:31:16.380Z,10.30
2019-04-21T05:35:20.121Z,10.40
2019-04-21T05:40:00.243Z,10.60
2019-04-21T05:44:13.250Z,10.60
2019-04-21T05:48:32.194Z,10.80
2019-04-21T05:52:26.434Z,10.90
2019-04-21T05:56:45.981Z,10.90
2019-04-21T06:05:13.619Z,11.30
2019-04-21T06:09:11.100Z,11.40
2019-04-21T06:13:21.813Z,11.50
2019-04-21T06:17:32.892Z,11.60
2019-04-21T06:21:28.072Z,11.70
2019-04-21T06:25:50.338Z,11.80
2019-04-21T06:29:43.668Z,11.90
2019-04-21T06:33:50.682Z,12.00
2019-04-21T06:37:56.528Z,12.10
2019-04-21T06:42:07.420Z,12.40
2019-04-21T06:46:10.970Z,12.40
2019-04-21T06:50:19.044Z,12.50
2019-04-21T06:54:32.282Z,12.60
2019-04-21T06:58:32.434Z,12.80
2019-04-21T07:02:49.277Z,12.90
2019-04-21T07:10:52.090Z,13.20
2019-04-21T07:14:59.534Z,13.40
2019-04-21T07:19:14.608Z,13.60
2019-04-21T07:23:16.101Z,14.00
2019-04-21T07:27:18.967Z,14.10
2019-04-21T07:31:25.205Z,14.30
2019-04-21T07:35:32.220Z,14.50
2019-04-21T07:39:35.313Z,14.50
2019-04-21T07:43:38.093Z,14.50
2019-04-21T07:48:01.936Z,14.60
2019-04-21T07:52:22.257Z,14.70
2019-04-21T07:56:17.834Z,14.80
2019-04-21T08:00:45.369Z,14.90
2019-04-21T08:04:52.817Z,15.10
2019-04-21T08:08:46.717Z,15.20
2019-04-21T08:12:55.555Z,15.40
2019-04-21T08:17:05.631Z,15.50
2019-04-21T08:21:09.068Z,15.60
2019-04-21T08:25:27.269Z,15.90
2019-04-21T08:29:34.328Z,16.00
2019-04-21T08:37:38.068Z,16.30
2019-04-21T08:41:45.270Z,16.50
2019-04-21T08:45:57.667Z,16.70
2019-04-21T08:50:02.102Z,16.90
2019-04-21T08:54:09.048Z,17.10
2019-04-21T08:58:39.441Z,17.20
2019-04-21T09:02:57.461Z,17.30
2019-04-21T09:11:07.010Z,17.90
2019-04-21T09:15:13.915Z,18.10
2019-04-21T09:19:24.380Z,18.20
2019-04-21T09:23:28.441Z,18.40
2019-04-21T09:27:33.619Z,18.70
2019-04-21T09:31:25.997Z,18.90
2019-04-21T09:35:29.152Z,19.10
2019-04-21T09:39:40.933Z,19.20
2019-04-21T09:43:46.865Z,19.30
2019-04-21T09:47:57.176Z,19.40
2019-04-21T09:51:55.265Z,19.40
2019-04-21T09:56:04.933Z,19.40
2019-04-21T10:00:15.098Z,19.50
2019-04-21T10:04:16.084Z,19.60
2019-04-21T10:08:22.818Z,19.70
2019-04-21T10:12:28.686Z,19.80
2019-04-21T10:16:46.443Z,20.10
2019-04-21T10:20:51.319Z,20.10
2019-04-21T10:24:56.643Z,20.30
2019-04-21T10:29:08.185Z,20.40
2019-04-21T10:33:08.433Z,20.40
2019-04-21T10:37:13.858Z,20.30
2019-04-21T10:41:19.281Z,20.50
2019-04-21T10:45:25.201Z,20.60
2019-04-21T10:49:30.766Z,20.60
2019-04-21T10:53:38.691Z,20.80
2019-04-21T10:58:02.662Z,20.90
2019-04-21T11:02:12.798Z,21.00
2019-04-21T11:06:19.280Z,21.00
2019-04-21T11:10:25.661Z,21.10
2019-04-21T11:14:31.538Z,21.20
2019-04-21T11:18:37.966Z,21.20
2019-04-21T11:22:57.453Z,21.30
2019-04-21T11:27:04.514Z,21.40
2019-04-21T11:31:10.978Z,21.40
2019-04-21T11:35:17.135Z,21.60
2019-04-21T11:39:39.236Z,21.60
2019-04-21T11:43:37.447Z,21.50
2019-04-21T11:47:54.468Z,21.80
2019-04-21T11:52:18.880Z,22.10
2019-04-21T11:56:24.973Z,22.30
2019-04-21T12:00:31.547Z,22.50
2019-04-21T12:04:36.857Z,22.50
2019-04-21T12:08:46.195Z,22.50
2019-04-21T12:12:48.333Z,22.80
2019-04-21T12:16:53.492Z,23.20
2019-04-21T12:20:58.651Z,23.50
2019-04-21T12:25:07.177Z,23.90
2019-04-21T12:29:12.084Z,24.30
2019-04-21T12:33:22.801Z,24.20
2019-04-21T12:37:28.935Z,24.40
2019-04-21T12:41:33.982Z,24.80
2019-04-21T12:45:40.141Z,25.10
2019-04-21T12:49:45.608Z,25.40
2019-04-21T12:53:51.878Z,25.70
2019-04-21T12:57:57.648Z,26.00
2019-04-21T13:02:03.289Z,26.50
2019-04-21T13:06:09.774Z,27.00
2019-04-21T13:10:16.206Z,27.50
2019-04-21T13:14:22.078Z,28.00
2019-04-21T13:18:27.637Z,28.40
2019-04-21T13:22:34.145Z,28.60
2019-04-21T13:26:47.261Z,28.90
2019-04-21T13:30:46.387Z,29.00
2019-04-21T13:34:52.666Z,29.30
2019-04-21T13:39:55.604Z,29.70
2019-04-21T13:43:41.173Z,30.00
2019-04-21T13:47:46.564Z,30.90
2019-04-21T13:51:51.988Z,31.30
2019-04-21T13:55:58.483Z,31.40
2019-04-21T14:00:05.445Z,31.50
2019-04-21T14:04:11.540Z,31.90
2019-04-21T14:08:16.763Z,32.40
2019-04-21T14:12:21.764Z,32.40
2019-04-21T14:16:26.809Z,32.10
2019-04-21T14:20:31.732Z,32.30
2019-04-21T14:24:38.749Z,32.70
2019-04-21T14:28:46.892Z,32.70
2019-04-21T14:32:52.056Z,32.80
2019-04-21T14:36:57.388Z,33.40
2019-04-21T14:41:02.380Z,33.20
2019-04-21T14:45:10.558Z,32.80
2019-04-21T14:49:31.043Z,32.60
2019-04-21T14:53:46.055Z,32.70
2019-04-21T14:57:51.534Z,32.70
2019-04-21T15:01:57.923Z,33.10
2019-04-21T15:06:03.464Z,33.20
2019-04-21T15:10:15.166Z,33.30
2019-04-21T15:14:17.765Z,34.20
2019-04-21T15:18:22.982Z,34.60
2019-04-21T15:22:28.390Z,35.10
2019-04-21T15:26:33.608Z,35.30
2019-04-21T15:30:38.645Z,35.50
2019-04-21T15:34:44.382Z,35.60
2019-04-21T15:38:49.662Z,36.10
2019-04-21T15:42:54.836Z,36.60
2019-04-21T15:46:59.966Z,37.90
2019-04-21T15:51:05.652Z,38.50
2019-04-21T15:55:19.433Z,38.60
2019-04-21T15:59:46.771Z,38.90
2019-04-21T16:03:55.743Z,39.80
2019-04-21T16:08:00.302Z,39.90
2019-04-21T16:12:05.554Z,38.90
2019-04-21T16:16:10.700Z,38.20
2019-04-21T16:20:17.722Z,36.90
2019-04-21T16:24:23.405Z,35.50
2019-04-21T16:28:31.078Z,34.30
2019-04-21T16:32:36.398Z,33.60
2019-04-21T16:36:41.856Z,32.50
2019-04-21T16:40:55.586Z,32.00
2019-04-21T16:44:54.812Z,31.60
2019-04-21T16:49:00.023Z,31.20
2019-04-21T16:53:16.481Z,30.80
2019-04-21T16:57:33.564Z,30.40
2019-04-21T17:01:38.572Z,30.30
2019-04-21T17:05:43.532Z,29.70
2019-04-21T17:09:48.677Z,29.50
2019-04-21T17:13:54.366Z,29.30
2019-04-21T17:18:13.359Z,29.00
2019-04-21T17:22:09.886Z,28.70
2019-04-21T17:26:15.424Z,28.20
2019-04-21T17:30:20.686Z,28.20
2019-04-21T17:34:29.733Z,28.00
2019-04-21T17:38:32.356Z,27.70
2019-04-21T17:42:46.504Z,27.40
2019-04-21T17:46:51.867Z,27.10
2019-04-21T17:51:03.434Z,26.80
2019-04-21T17:55:25.453Z,26.50
2019-04-21T18:03:58.458Z,26.00
2019-04-21T18:07:54.800Z,25.60
2019-04-21T18:12:06.809Z,25.50
2019-04-21T18:16:06.354Z,25.30
2019-04-21T18:19:59.695Z,25.00
2019-04-21T18:24:14.649Z,24.80
2019-04-21T18:28:14.524Z,24.60
2019-04-21T18:32:27.623Z,24.20
2019-04-21T18:36:38.032Z,24.00
2019-04-21T18:40:45.492Z,23.90
2019-04-21T18:45:38.743Z,23.80
2019-04-21T18:49:07.199Z,23.60
2019-04-21T18:53:32.707Z,23.50
2019-04-21T18:57:30.636Z,23.50
2019-04-21T19:01:31.847Z,23.40
2019-04-21T19:05:39.826Z,23.10
2019-04-21T19:10:22.369Z,23.00
2019-04-21T19:22:31.220Z,22.60
2019-04-21T19:26:42.407Z,22.40
2019-04-21T19:30:50.685Z,22.20
2019-04-21T19:34:39.928Z,22.10
2019-04-21T19:38:49.401Z,21.90
2019-04-21T19:42:58.195Z,21.70
2019-04-21T19:47:19.854Z,21.60
2019-04-21T19:51:18.109Z,21.50
2019-04-21T19:55:09.768Z,21.30
2019-04-21T19:59:23.583Z,21.20
2019-04-21T20:03:24.606Z,21.10
2019-04-21T20:07:44.478Z,21.10
2019-04-21T20:11:52.506Z,20.90
2019-04-21T20:16:01.462Z,20.90
2019-04-21T20:19:50.083Z,20.60
2019-04-21T20:24:03.062Z,20.60
2019-04-21T20:28:09.612Z,20.30
2019-04-21T20:32:36.696Z,20.20
2019-04-21T20:36:35.461Z,20.10
2019-04-21T20:40:31.807Z,20.10
2019-04-21T20:44:52.582Z,19.90
2019-04-21T20:48:52.339Z,19.70
2019-04-21T20:53:00.010Z,19.60
2019-04-21T20:57:06.183Z,19.40
2019-04-21T21:01:33.205Z,19.30
2019-04-21T21:05:17.510Z,19.10
2019-04-21T21:09:25.277Z,19.00
2019-04-21T21:13:37.775Z,18.90
2019-04-21T21:21:45.687Z,18.70
2019-04-21T21:25:59.327Z,18.50
2019-04-21T21:29:58.369Z,18.30
2019-04-21T21:34:16.795Z,18.20
2019-04-21T21:38:19.720Z,18.20
2019-04-21T21:42:08.026Z,18.20
2019-04-21T21:46:31.247Z,18.20
2019-04-21T21:50:28.221Z,18.00
2019-04-21T21:54:27.782Z,18.00
2019-04-21T21:58:38.167Z,17.90
2019-04-21T22:02:45.404Z,17.70
2019-04-21T22:06:55.323Z,17.60
2019-04-21T22:10:53.065Z,17.50
2019-04-21T22:15:04.547Z,17.20
2019-04-21T22:19:27.314Z,17.10
2019-04-21T22:23:24.126Z,17.00
2019-04-21T22:27:18.991Z,16.80
2019-04-21T22:31:29.077Z,16.70
2019-04-21T22:35:38.626Z,16.50
2019-04-21T22:39:56.986Z,16.40
2019-04-21T22:43:48.233Z,16.30
2019-04-21T22:47:52.119Z,16.30
2019-04-21T22:52:00.793Z,16.20
2019-04-21T22:56:12.536Z,16.00
2019-04-21T23:00:16.409Z,15.90
2019-04-21T23:04:21.061Z,15.90
2019-04-21T23:08:31.804Z,16.00
2019-04-21T23:12:37.249Z,15.70
2019-04-21T23:16:43.717Z,15.70
2019-04-21T23:21:02.877Z,15.70
2019-04-21T23:25:16.734Z,15.60
2019-04-21T23:29:17.378Z,15.40
2019-04-21T23:33:12.042Z,15.40
2019-04-21T23:37:18.282Z,15.30
2019-04-21T23:41:21.611Z,15.30
2019-04-21T23:45:31.346Z,15.20
2019-04-21T23:49:42.960Z,15.00
2019-04-21T23:53:41.479Z,14.90
2019-04-21T23:57:48.501Z,14.70
